Hlavní strana
METAR-TAF:

METAR-TAF

Letiště :

Marathon, Florida, Spojené státy americké

zeměpisná šířka: 24-43-33N, zeměpisná délka: 081-02-52W, výška: 2 m

Aktuální stav počasí

Zpráva byla vytvořena před 22 minutami, v 10:53 UTC
Východojihovýchodní vítr 8 kt
Teplota 26°C
Vlhkost vzduchu 79%
Tlak 1018 hPa
Viditelnost: 16.1 km
Jasno

METAR: KMTH 101053Z AUTO 12008KT 10SM CLR 26/22 A3005 RMK AO2 SLP176 T02560217

Čas: 06:15 (11:15 UTC)

Předpověď počasí

Zpráva byla vytvořena před 1 hodinou a 48 minutami, v 09:27 UTC
Předpověď platná od 10 v 09 UTC do 11 v 06 UTC
Východojihovýchodní vítr 8 kt
Viditelnost: 10 km
Polojasno ve výšce 2500 ft
Oblačno až skoro zataženo ve výšce 6000 ft
Od 10 v 1600 UTC
Jihovýchodní vítr 9 kt
Viditelnost: 10 km
Polojasno ve výšce 2500 ft
Polojasno ve výšce 6000 ft

TAF: KMTH 100927Z 1009/1106 11008KT P6SM SCT025 BKN060 FM101600 13009KT P6SM SCT025 SCT060

Stav a předpovědi počasí z více než 4 000 letišť (zprávy METAR a TAF).

Červené a žluté tečky na mapě představují dostupné meteorologické stanice.

Když kurzor umístíte na tečku, zobrazí se název stanice.

Pak kliknutím zobrazíte stav a předpověď počasí.

Chcete-li změnit mapu, kliknutím na zelené tlačítko se znaménkem +mapu přiblížíte, kliknutím na zelené tlačítko se znaménkem – mapu oddálíte a kliknutím na zelené šipky přejdete na sousední mapy.


METAR-TAF: